ADDS METAR Data INFO
IDs: Format: Raw Decoded Include TAF

Data at: 0330 UTC 16 Dec 2017

KLDJ 160315Z AUTO 00000KT 10SM SCT110 M05/M07 A2993 RMK AO2 T10551072
KLDJ 160255Z AUTO 00000KT 10SM CLR M05/M07 A2994 RMK AO2 60002 T10521070
KLDJ 160235Z AUTO 00000KT 10SM SCT027 M05/M07 A2994 RMK AO2 T10501070
KLDJ 160215Z AUTO 00000KT 10SM SCT027 SCT080 M05/M07 A2994 RMK AO2 T10501070
KLDJ 160155Z AUTO 29008KT 10SM SCT009 BKN080 M05/M07 A2994 RMK AO2 P0001 T10511073
KLDJ 160135Z AUTO 00000KT 10SM SCT009 OVC080 M04/M06 A2993 RMK AO2 P0001 T10451065
KLDJ 160115Z AUTO 00000KT 10SM OVC070 M05/M07 A2993 RMK AO2 P0001 T10461066
KLDJ 160055Z AUTO 00000KT 10SM OVC060 M05/M07 A2993 RMK AO2 P0001 T10471066
KLDJ 160035Z AUTO 00000KT 5SM -SN OVC060 M05/M06 A2993 RMK AO2 P0001 T10471065
KLDJ 160015Z AUTO 00000KT 4SM -SN SCT019 SCT028 OVC060 M05/M06 A2993 RMK AO2 P0001 T10471065
KLDJ 152355Z AUTO 00000KT 4SM -SN SCT021 BKN034 OVC060 M05/M07 A2993 RMK AO2 P0002 60003 T10481066 11030 21050
KLDJ 152335Z AUTO 00000KT 2 1/2SM -SN SCT015 BKN022 OVC060 M05/M06 A2993 RMK AO2 P0002 T10471065
KLDJ 152315Z AUTO 00000KT 2 1/2SM -SN BKN008 BKN015 OVC022 M05/M06 A2993 RMK AO2 P0001 T10481065
KLDJ 152255Z AUTO 00000KT 1 3/4SM -SN OVC008 M05/M06 A2993 RMK AO2 P0001 T10481065
KLDJ 152235Z AUTO 00000KT 1 1/2SM -SN OVC006 M05/M06 A2994 RMK AO2 P0001 T10481065
KLDJ 152215Z AUTO 00000KT 1 1/4SM -SN OVC006 M05/M06 A2994 RMK AO2 P0001 T10481065
KLDJ 152155Z AUTO 00000KT 1SM -SN OVC004 M05/M06 A2994 RMK AO2 T10471063
KLDJ 152135Z AUTO 00000KT 1 1/4SM -SN OVC004 M05/M06 A2995 RMK AO2 T10471065
KLDJ 152115Z AUTO 00000KT 1 1/4SM -SN OVC008 M05/M07 A2994 RMK AO2 T10481070
KLDJ 152055Z AUTO 00000KT 1 1/2SM UP OVC010 M05/M07 A2993 RMK AO2 T10471072
KLDJ 152035Z AUTO 00000KT 1 1/2SM -SN OVC010 M05/M08 A2993 RMK AO2 T10461078
KLDJ 152015Z AUTO 00000KT 1 3/4SM -SN OVC010 M04/M09 A2994 RMK AO2 T10421091
KLDJ 151955Z AUTO 00000KT 7SM UP OVC023 M03/M10 A2995 RMK AO2 T10351102
KLDJ 151935Z AUTO 00000KT 7SM -SN SCT023 OVC030 M03/M11 A2995 RMK AO2 T10331113
KLDJ 151915Z AUTO 00000KT 10SM -SN OVC035 M03/M12 A2996 RMK AO2 T10311120
KLDJ 151855Z AUTO 00000KT 10SM BKN037 OVC046 M03/M12 A2997 RMK AO2 T10301124
KLDJ 151835Z AUTO 00000KT 10SM SCT048 BKN050 OVC060 M03/M12 A2998 RMK AO2 T10331123
KLDJ 151815Z AUTO 00000KT 10SM OVC060 M03/M12 A3000 RMK AO2 T10331119
KLDJ 151755Z AUTO 00000KT 10SM SCT048 OVC070 M03/M12 A3001 RMK AO2 T10331119 11032 21067
KLDJ 151735Z AUTO 00000KT 10SM BKN048 OVC070 M03/M12 A3002 RMK AO2 T10341120
KLDJ 151715Z AUTO 00000KT 10SM OVC050 M04/M12 A3004 RMK AO2 T10361122
KLDJ 151655Z AUTO 00000KT 10SM BKN050 BKN085 M04/M12 A3005 RMK AO2 T10371123
KLDJ 151635Z AUTO 00000KT 10SM CLR M04/M13 A3007 RMK AO2 T10381126
KLDJ 151615Z AUTO 00000KT 10SM CLR M04/M13 A3008 RMK AO2 T10411127
KLDJ 151555Z AUTO 00000KT 10SM CLR M04/M12 A3009 RMK AO2 T10411121
KLDJ 151535Z AUTO 00000KT 10SM CLR M04/M13 A3012 RMK AO2 T10451127
KLDJ 151515Z AUTO 00000KT 10SM CLR M05/M12 A3012 RMK AO2 T10461125
KLDJ 151455Z AUTO 00000KT 10SM CLR M04/M13 A3012 RMK AO2 T10451127
KLDJ 151435Z AUTO 00000KT 10SM CLR M05/M13 A3012 RMK AO2 T10501129
KLDJ 151415Z AUTO 00000KT 10SM CLR M05/M13 A3014 RMK AO2 T10511132
KLDJ 151355Z AUTO 00000KT 10SM CLR M05/M13 A3013 RMK AO2 T10551133
KLDJ 151335Z AUTO 00000KT 10SM CLR M06/M13 A3013 RMK AO2 T10581127
KLDJ 151315Z AUTO 00000KT 10SM CLR M06/M13 A3012 RMK AO2 T10601132
KLDJ 151255Z AUTO 00000KT 10SM SCT120 M06/M13 A3012 RMK AO2 T10611133
KLDJ 151235Z AUTO 00000KT 10SM SCT120 M06/M13 A3012 RMK AO2 T10651128
KLDJ 151215Z AUTO 00000KT 10SM SCT120 M07/M13 A3012 RMK AO2 T10661127
KLDJ 151155Z AUTO 00000KT 10SM CLR M06/M13 A3012 RMK AO2 T10651131 11061 21073
KLDJ 151135Z AUTO 00000KT 10SM CLR M06/M14 A3012 RMK AO2 T10651138
KLDJ 151115Z AUTO 00000KT 10SM CLR M06/M14 A3012 RMK AO2 T10651141
KLDJ 151055Z AUTO 00000KT 10SM CLR M07/M14 A3012 RMK AO2 T10701139
KLDJ 151035Z AUTO 00000KT 10SM CLR M07/M14 A3012 RMK AO2 T10711138
KLDJ 151015Z AUTO 00000KT 10SM CLR M07/M14 A3012 RMK AO2 T10711141
KLDJ 150955Z AUTO 00000KT 10SM CLR M07/M14 A3011 RMK AO2 T10661142
KLDJ 150935Z AUTO 00000KT 10SM CLR M07/M14 A3010 RMK AO2 T10721141
KLDJ 150915Z AUTO 00000KT 10SM CLR M07/M14 A3012 RMK AO2 T10661142
KLDJ 150855Z AUTO 00000KT 10SM CLR M07/M14 A3011 RMK AO2 T10681145
KLDJ 150835Z AUTO 00000KT 10SM CLR M07/M14 A3012 RMK AO2 T10721142
KLDJ 150815Z AUTO 00000KT 10SM CLR M07/M14 A3012 RMK AO2 T10721144
KLDJ 150755Z AUTO 00000KT 10SM CLR M07/M14 A3012 RMK AO2 T10681145
KLDJ 150735Z AUTO 00000KT 10SM CLR M07/M15 A3012 RMK AO2 T10681147
KLDJ 150715Z AUTO 00000KT 10SM CLR M07/M14 A3012 RMK AO2 T10661145
KLDJ 150655Z AUTO 00000KT 10SM CLR M06/M14 A3012 RMK AO2 T10631145
KLDJ 150635Z AUTO 00000KT 10SM CLR M06/M15 A3013 RMK AO2 T10651147
KLDJ 150615Z AUTO 00000KT 10SM CLR M06/M15 A3012 RMK AO2 T10651148
KLDJ 150555Z AUTO 00000KT 10SM CLR M06/M15 A3012 RMK AO2 T10631148 11033 21063 400031063
KLDJ 150535Z AUTO 00000KT 10SM CLR M06/M15 A3012 RMK AO2 T10561152
KLDJ 150515Z AUTO 00000KT 10SM CLR M06/M15 A3011 RMK AO2 T10561155
KLDJ 150455Z AUTO 00000KT 10SM CLR M05/M16 A3012 RMK AO2 T10541156
KLDJ 150435Z AUTO 00000KT 10SM CLR M05/M15 A3010 RMK AO2 T10531155
KLDJ 150415Z AUTO 00000KT 10SM CLR M05/M15 A3011 RMK AO2 T10501155
KLDJ 150355Z AUTO 00000KT 10SM CLR M05/M15 A3011 RMK AO2 T10501152
KLDJ 150335Z AUTO 00000KT 10SM CLR M05/M15 A3010 RMK AO2 T10471149
KLDJ 150315Z AUTO 00000KT 10SM CLR M04/M15 A3010 RMK AO2 T10451149
KLDJ 150255Z AUTO 00000KT 10SM CLR M05/M15 A3010 RMK AO2 T10461150
KLDJ 150235Z AUTO 00000KT 10SM CLR M04/M15 A3009 RMK AO2 T10451150
KLDJ 150215Z AUTO 00000KT 10SM CLR M04/M15 A3009 RMK AO2 T10431153
KLDJ 150155Z AUTO 00000KT 10SM CLR M04/M15 A3008 RMK AO2 T10431149
KLDJ 150135Z AUTO 00000KT 10SM CLR M04/M15 A3007 RMK AO2 T10401151
KLDJ 150115Z AUTO 34005KT 10SM CLR M04/M15 A3006 RMK AO2 T10381150
KLDJ 150055Z AUTO 33009KT 10SM CLR M03/M15 A3005 RMK AO2 T10351148
KLDJ 150035Z AUTO 33007KT 10SM CLR M03/M13 A3005 RMK AO2 T10351131
KLDJ 150015Z AUTO 31008KT 10SM CLR M03/M13 A3004 RMK AO2 T10341134
KLDJ 142355Z AUTO 32008KT 10SM CLR M03/M13 A3003 RMK AO2 T10321135 10003 21032
KLDJ 142335Z AUTO 32009KT 10SM CLR M03/M13 A3001 RMK AO2 T10321134
KLDJ 142315Z AUTO 32006KT 10SM CLR M03/M13 A3000 RMK AO2 T10311130
KLDJ 142235Z AUTO 32008KT 10SM CLR M03/M13 A2998 RMK AO2 T10261129
KLDJ 142215Z AUTO 32008KT 10SM CLR M02/M13 A2996 RMK AO2 T10251129
KLDJ 142155Z AUTO 33006KT 10SM CLR M02/M13 A2995 RMK AO2 T10221127
KLDJ 142135Z AUTO 34010KT 10SM CLR M02/M13 A2993 RMK AO2 T10201127
KLDJ 142115Z AUTO 33010KT 10SM CLR M01/M13 A2991 RMK AO2 T10151126
KLDJ 142055Z AUTO 33008KT 10SM CLR M01/M12 A2990 RMK AO2 T10111121
KLDJ 142035Z AUTO 31010G20KT 10SM CLR M01/M12 A2989 RMK AO2 T10101117
KLDJ 142015Z AUTO 32016G20KT 10SM CLR 00/M12 A2988 RMK AO2 T10051117
KLDJ 141955Z AUTO 32015G20KT 10SM SCT050 M01/M11 A2987 RMK AO2 T10071113
KLDJ 141935Z AUTO 31017G23KT 10SM SCT050 00/M10 A2986 RMK AO2 T10031105
KLDJ 141915Z AUTO 31012G23KT 10SM CLR 00/M10 A2984 RMK AO2 T00001096
KLDJ 141855Z AUTO 32015G21KT 10SM SCT045 00/M09 A2982 RMK AO2 T00021093
KLDJ 141835Z AUTO 32014G21KT 10SM SCT045 00/M09 A2980 RMK AO2 T00011093
KLDJ 141815Z AUTO 35010G14KT 10SM SCT042 SCT048 00/M09 A2979 RMK AO2 T00031086
KLDJ 141755Z AUTO 31009KT 10SM CLR 00/M08 A2978 RMK AO2 T00001085 10000 21037
KLDJ 141735Z AUTO 32014G20KT 10SM CLR 00/M09 A2978 RMK AO2 T10031089
KLDJ 141715Z AUTO 33010G18KT 10SM -SN SCT034 00/M08 A2977 RMK AO2 T10051083
KLDJ 141655Z AUTO 35008KT 10SM CLR M01/M07 A2977 RMK AO2 T10071075
KLDJ 141635Z AUTO 32010KT 10SM SCT027 M01/M07 A2975 RMK AO2 T10111075
KLDJ 141615Z AUTO 34006KT 10SM BKN025 BKN032 M01/M07 A2974 RMK AO2 T10151070
KLDJ 141555Z AUTO 35007KT 10SM SCT019 SCT027 M02/M07 A2973 RMK AO2 T10161066
KLDJ 141535Z AUTO 00000KT 10SM BKN017 BKN037 M02/M06 A2972 RMK AO2 T10211063